Florence Regional Airport Florence US
ICAO: KFLO
IATA: FLO
Category: Medium
Scheduled Services: Yes

Elevation: 146 ft
TransAlt. 18000 ft.

Airport Communications:
APP DEP:118.6
ATIS:123.625
CTAF:125.1
GND/CLNC DEL:121.9
ANDERSON RDO:122.6
TWR:125.1
UNICOM:122.95

KFLO Zoom In..

If you have problems with the map follow the link
https://www.worldairports.se/pages/airport.php?
ICAO=KFLO

Runways:

(A) RW 01 length 6000 ft width 150 ft
---- / hdg 6

(B) RW 09 length 6502 ft width 150 ft
ILS 109.10 / hdg 89

(C) RW 19 length 6000 ft width 150 ft
---- / hdg 186

(D) RW 27 length 6502 ft width 150 ft
---- / hdg 269

Location; KFLO
Day. 21 / Time. 06.53 Zulu
* Altimeter: 29.93
* Temperature: 15° c. 59°f.
* Wind from: 300° Speed 04 kn.
Dewpoint: 10° c.
Visibility: 10 Statute Miles.
Clouds: Clear (automated report).

KFLO 210653Z AUTO 30004KT 10SM CLR 15/10 A2993 RMK AO2 SLP132 T01500100


Wind From 300°
Speed 04 kn.

 
 
jpsmedia.com for Web Design worldairports.se 2018   terms of use